Time;durP1;ratioP1;P1;durP2;ratioP2;P2;SDS_P1;SDS_P2;PMS_P1;PMS_P2;Temp;Humidity;BMP_temperature;BMP_pressure;BME280_temperature;BME280_humidity;BME280_pressure;Samples;Min_cycle;Max_cycle;Signal;HPM_P1;HPM_P2
2021/03/04 00:00:45;;;;;;;6.60;1.63;;;24.30;61.40;;;;;;4991828;28;20421;-56
2021/03/04 00:03:13;;;;;;;10.02;2.45;;;24.30;61.90;;;;;;4991494;28;20085;-50
2021/03/04 00:05:40;;;;;;;7.68;2.10;;;24.40;61.50;;;;;;4991815;28;20116;-61
2021/03/04 00:08:08;;;;;;;5.28;1.70;;;24.40;62.20;;;;;;4990604;28;20337;-65
2021/03/04 00:10:35;;;;;;;4.90;1.45;;;24.40;62.10;;;;;;4990237;28;20049;-65
2021/03/04 00:13:03;;;;;;;3.67;1.20;;;24.40;62.60;;;;;;4992037;28;20071;-59
2021/03/04 00:15:33;;;;;;;4.40;1.40;;;24.40;62.80;;;;;;4994687;28;20463;-64
2021/03/04 00:18:01;;;;;;;5.65;1.67;;;24.50;61.70;;;;;;4994901;28;20117;-69
2021/03/04 00:20:30;;;;;;;3.95;1.40;;;24.60;61.60;;;;;;4995580;28;20026;-63
2021/03/04 00:22:58;;;;;;;4.78;1.40;;;24.50;61.70;;;;;;4995045;28;20054;-59
2021/03/04 00:25:31;;;;;;;4.75;1.35;;;24.50;61.40;;;;;;4991900;28;20373;-56
2021/03/04 00:27:59;;;;;;;7.55;1.77;;;24.60;60.80;;;;;;4992160;28;20028;-60
2021/03/04 00:30:27;;;;;;;6.45;1.50;;;24.70;60.70;;;;;;4985871;28;20038;-62
2021/03/04 00:32:56;;;;;;;4.55;1.58;;;24.80;61.60;;;;;;4991722;28;20128;-59
2021/03/04 00:35:23;;;;;;;4.82;1.83;;;24.90;60.50;;;;;;4983483;28;20097;-58
2021/03/04 00:37:51;;;;;;;4.90;1.42;;;25.00;61.00;;;;;;4989964;28;20030;-65
2021/03/04 00:40:20;;;;;;;3.65;1.50;;;25.00;60.40;;;;;;4986508;28;20034;-55
2021/03/04 00:42:48;;;;;;;4.85;1.52;;;25.00;61.20;;;;;;4989636;28;20058;-57
2021/03/04 00:45:18;;;;;;;5.10;1.70;;;24.90;61.30;;;;;;4990606;28;20038;-59
2021/03/04 00:47:46;;;;;;;5.03;1.35;;;24.90;61.20;;;;;;4993167;28;20427;-59
2021/03/04 00:50:15;;;;;;;4.18;1.48;;;25.00;60.80;;;;;;4985466;28;20042;-50
2021/03/04 00:52:42;;;;;;;3.70;1.40;;;25.20;60.70;;;;;;4989029;28;20139;-51
2021/03/04 00:55:10;;;;;;;4.68;1.63;;;25.20;59.60;;;;;;4992914;28;20089;-56
2021/03/04 00:57:38;;;;;;;4.00;1.40;;;25.20;58.90;;;;;;4990664;28;20022;-56
2021/03/04 01:00:08;;;;;;;7.80;1.63;;;25.30;60.10;;;;;;4982941;28;20030;-55
2021/03/04 01:02:36;;;;;;;8.68;1.70;;;25.30;59.20;;;;;;4989191;28;20041;-53
2021/03/04 01:05:04;;;;;;;4.65;1.20;;;25.40;60.50;;;;;;4992235;28;20118;-59
2021/03/04 01:07:32;;;;;;;3.92;1.73;;;25.40;60.30;;;;;;4994273;28;20473;-56
2021/03/04 01:10:00;;;;;;;8.23;1.80;;;25.50;58.10;;;;;;4992479;28;20065;-58
2021/03/04 01:12:27;;;;;;;5.53;1.27;;;25.50;58.50;;;;;;4994379;28;20022;-61
2021/03/04 01:14:55;;;;;;;6.55;1.58;;;25.60;59.20;;;;;;4993347;28;20038;-57
2021/03/04 01:17:22;;;;;;;5.50;1.27;;;25.70;59.10;;;;;;4994270;28;20449;-61
2021/03/04 01:19:50;;;;;;;7.95;1.63;;;25.70;57.80;;;;;;4993617;28;20433;-58
2021/03/04 01:22:17;;;;;;;5.57;1.42;;;25.80;59.30;;;;;;4994092;28;20050;-57
2021/03/04 01:24:45;;;;;;;3.13;1.10;;;25.70;57.80;;;;;;4993234;28;20034;-56
2021/03/04 01:27:12;;;;;;;5.28;2.00;;;25.80;58.60;;;;;;4993982;28;20108;-54
2021/03/04 01:29:39;;;;;;;5.95;1.40;;;25.90;57.80;;;;;;4993795;28;20409;-61
2021/03/04 01:32:07;;;;;;;7.78;1.90;;;26.00;58.40;;;;;;4992762;28;20026;-61
2021/03/04 01:34:34;;;;;;;3.50;1.20;;;25.90;58.10;;;;;;4992899;28;20035;-54
2021/03/04 01:37:02;;;;;;;3.58;1.48;;;25.90;58.80;;;;;;4993194;28;20172;-64
2021/03/04 01:39:29;;;;;;;8.30;1.73;;;25.80;58.90;;;;;;4993521;28;20497;-55
2021/03/04 01:41:57;;;;;;;4.47;1.55;;;25.80;57.90;;;;;;4992468;28;20037;-64
2021/03/04 01:44:24;;;;;;;3.92;1.05;;;25.80;58.90;;;;;;4990088;28;20030;-63
2021/03/04 01:46:52;;;;;;;3.88;1.33;;;25.80;57.20;;;;;;4991215;28;20137;-63
2021/03/04 01:49:20;;;;;;;2.25;1.08;;;25.90;58.70;;;;;;4993087;28;20026;-60
2021/03/04 01:51:48;;;;;;;4.97;1.23;;;25.90;58.60;;;;;;4993443;28;20034;-53
2021/03/04 01:54:17;;;;;;;5.60;1.38;;;26.00;58.00;;;;;;4993046;28;20030;-52
2021/03/04 01:56:46;;;;;;;2.95;1.35;;;26.10;58.20;;;;;;4993013;28;20036;-61
2021/03/04 01:59:13;;;;;;;3.60;1.35;;;26.00;58.40;;;;;;4992250;28;20022;-65
2021/03/04 02:01:41;;;;;;;6.60;1.65;;;26.00;56.80;;;;;;4993498;28;20085;-59
2021/03/04 02:04:08;;;;;;;9.95;1.67;;;26.20;57.00;;;;;;4993225;28;20061;-52
2021/03/04 02:06:53;;;;;;;4.68;1.92;;;26.30;56.70;;;;;;4993727;28;20424;-54
2021/03/04 02:09:22;;;;;;;6.80;1.33;;;26.30;56.60;;;;;;4993371;28;20023;-56
2021/03/04 02:12:06;;;;;;;4.13;0.98;;;26.40;55.70;;;;;;4993943;28;20049;-54
2021/03/04 02:14:54;;;;;;;2.95;0.90;;;26.60;56.40;;;;;;4990922;28;20042;-54
2021/03/04 02:17:27;;;;;;;5.43;1.13;;;26.50;57.10;;;;;;4988488;28;20537;-59
2021/03/04 02:20:07;;;;;;;3.80;1.00;;;26.70;56.90;;;;;;4990072;28;20030;-51
2021/03/04 02:23:15;;;;;;;3.70;1.95;;;26.60;55.80;;;;;;4990235;28;20042;-52
2021/03/04 02:26:08;;;;;;;8.13;3.40;;;26.90;53.80;;;;;;4991156;28;20085;-59
2021/03/04 02:28:36;;;;;;;4.97;1.80;;;27.10;55.80;;;;;;4990967;28;20027;-50
2021/03/04 02:31:07;;;;;;;5.80;3.30;;;26.70;55.10;;;;;;4992272;28;20338;-52
2021/03/04 02:33:35;;;;;;;8.30;3.72;;;26.60;56.20;;;;;;4994809;28;20033;-55
2021/03/04 02:36:04;;;;;;;9.10;3.45;;;26.60;55.80;;;;;;4990723;28;20057;-53
2021/03/04 02:38:32;;;;;;;7.75;2.60;;;26.60;55.30;;;;;;4989507;28;20026;-58
2021/03/04 02:41:00;;;;;;;8.27;4.47;;;26.70;55.00;;;;;;4991172;28;20026;-52
2021/03/04 02:43:29;;;;;;;6.70;3.25;;;26.70;54.00;;;;;;4990604;28;20026;-61
2021/03/04 02:45:56;;;;;;;6.10;3.60;;;26.80;55.00;;;;;;4991272;28;20026;-65
2021/03/04 02:48:26;;;;;;;7.43;3.92;;;26.90;53.60;;;;;;4987213;28;20050;-64
2021/03/04 02:50:54;;;;;;;9.57;4.97;;;26.90;55.40;;;;;;4996074;28;20023;-62
2021/03/04 02:53:23;;;;;;;9.55;4.50;;;26.90;55.50;;;;;;4992731;28;20042;-61
2021/03/04 02:55:53;;;;;;;10.05;3.80;;;26.80;55.80;;;;;;4990221;28;20030;-55
2021/03/04 02:58:25;;;;;;;8.77;4.20;;;26.80;55.80;;;;;;4981239;28;20122;-58
2021/03/04 03:00:52;;;;;;;6.85;3.83;;;26.70;56.00;;;;;;4994616;28;20040;-64
2021/03/04 03:06:03;;;;;;;7.00;3.65;;;26.80;55.80;;;;;;5087609;27;20425;-62
2021/03/04 03:08:31;;;;;;;9.73;3.50;;;26.90;55.00;;;;;;5081340;28;20421;-58
2021/03/04 03:11:02;;;;;;;6.32;3.40;;;27.00;53.50;;;;;;5087613;28;20368;-65
2021/03/04 03:13:30;;;;;;;7.25;3.60;;;27.20;52.30;;;;;;5086862;28;20020;-64
2021/03/04 03:15:57;;;;;;;9.48;4.45;;;27.30;52.80;;;;;;5087369;28;20052;-63
2021/03/04 03:18:25;;;;;;;11.80;2.92;;;27.20;54.90;;;;;;5082871;28;20028;-61
2021/03/04 03:20:52;;;;;;;13.45;4.65;;;27.60;51.30;;;;;;5087709;28;20052;-53
2021/03/04 03:23:20;;;;;;;9.02;4.70;;;27.30;49.00;;;;;;5087486;28;20020;-57
2021/03/04 03:25:47;;;;;;;17.50;4.28;;;26.90;55.20;;;;;;5082027;28;20454;-60
2021/03/04 03:28:14;;;;;;;12.45;3.58;;;27.70;51.80;;;;;;5079979;28;20057;-57
2021/03/04 03:30:42;;;;;;;9.02;3.75;;;27.40;52.80;;;;;;5084493;28;20037;-53
2021/03/04 03:33:14;;;;;;;7.90;3.88;;;27.20;53.70;;;;;;5086317;28;20027;-66
2021/03/04 03:35:42;;;;;;;6.43;3.25;;;27.40;53.00;;;;;;5086465;28;20040;-63
2021/03/04 03:38:10;;;;;;;7.45;3.22;;;27.40;53.90;;;;;;5076946;28;20036;-56
2021/03/04 03:40:39;;;;;;;9.35;3.20;;;27.40;53.30;;;;;;5085251;28;20078;-64
2021/03/04 03:43:11;;;;;;;8.02;3.00;;;27.30;54.00;;;;;;5085104;28;20039;-66
2021/03/04 03:45:44;;;;;;;7.93;3.63;;;27.40;53.70;;;;;;5085073;28;20036;-66
2021/03/04 03:48:14;;;;;;;6.63;3.25;;;27.40;52.60;;;;;;5080077;28;20056;-58
2021/03/04 03:50:48;;;;;;;10.07;3.40;;;27.50;52.60;;;;;;5085228;28;20036;-58
2021/03/04 03:53:17;;;;;;;6.60;3.00;;;27.50;52.80;;;;;;5085486;28;20124;-64
2021/03/04 03:55:49;;;;;;;9.27;3.40;;;27.70;51.60;;;;;;5085165;28;20020;-64
2021/03/04 03:58:22;;;;;;;9.30;3.22;;;27.80;53.00;;;;;;5087115;28;20108;-56
2021/03/04 04:00:55;;;;;;;8.23;3.13;;;27.70;53.00;;;;;;5088353;28;20111;-56
2021/03/04 04:03:23;;;;;;;7.72;3.28;;;27.80;52.90;;;;;;5067753;28;20040;-54
2021/03/04 04:05:51;;;;;;;4.93;2.75;;;27.70;52.80;;;;;;5067130;28;20093;-55
2021/03/04 04:08:19;;;;;;;13.48;3.63;;;27.80;52.70;;;;;;5067234;28;20069;-59
2021/03/04 04:10:50;;;;;;;6.78;3.03;;;27.70;52.70;;;;;;5067035;28;20344;-58
2021/03/04 04:13:18;;;;;;;11.93;2.88;;;27.70;53.00;;;;;;5067355;28;20048;-53
2021/03/04 04:15:46;;;;;;;6.75;2.83;;;27.90;52.20;;;;;;5062992;28;20448;-49
2021/03/04 04:18:14;;;;;;;6.85;2.67;;;27.70;52.50;;;;;;5054029;28;20047;-54
2021/03/04 04:20:41;;;;;;;4.07;2.22;;;27.80;51.30;;;;;;5054166;28;20029;-58
2021/03/04 04:23:09;;;;;;;9.80;2.33;;;27.80;52.80;;;;;;5053849;28;20056;-62
2021/03/04 04:25:46;;;;;;;3.97;1.90;;;27.80;51.50;;;;;;5053274;28;20558;-48
2021/03/04 04:28:13;;;;;;;5.57;2.47;;;27.80;52.90;;;;;;5052605;28;20037;-51
2021/03/04 04:30:41;;;;;;;3.40;2.20;;;27.60;53.70;;;;;;5054324;28;20110;-59
2021/03/04 04:33:08;;;;;;;5.00;2.40;;;27.40;53.80;;;;;;5053685;28;20178;-58
2021/03/04 04:35:36;;;;;;;8.30;2.30;;;27.60;53.20;;;;;;5053849;28;20053;-58
2021/03/04 04:38:03;;;;;;;6.47;2.63;;;27.60;53.30;;;;;;5053004;28;20108;-62
2021/03/04 04:40:31;;;;;;;8.88;2.67;;;27.70;53.10;;;;;;5053907;28;20035;-55
2021/03/04 04:42:58;;;;;;;5.72;2.10;;;27.80;53.10;;;;;;5054041;28;20064;-58
2021/03/04 04:45:26;;;;;;;3.30;1.90;;;27.90;53.70;;;;;;5053641;28;20450;-54
2021/03/04 04:47:53;;;;;;;7.00;2.17;;;27.90;53.40;;;;;;5051985;28;20032;-62
2021/03/04 04:50:21;;;;;;;6.95;2.45;;;27.90;53.50;;;;;;5053643;28;20029;-50
2021/03/04 04:52:48;;;;;;;4.13;1.95;;;27.70;53.70;;;;;;5053757;28;20100;-58
2021/03/04 04:55:16;;;;;;;5.82;2.53;;;27.70;54.40;;;;;;5054045;28;20021;-60
2021/03/04 04:57:43;;;;;;;2.78;1.70;;;27.60;54.00;;;;;;5060666;28;20043;-61
2021/03/04 05:00:11;;;;;;;9.15;2.55;;;27.60;54.10;;;;;;5072917;28;20025;-60
2021/03/04 05:02:39;;;;;;;5.40;2.00;;;27.60;54.10;;;;;;5073344;28;20028;-58
2021/03/04 05:05:08;;;;;;;4.82;2.40;;;27.70;54.70;;;;;;5072531;28;20045;-62
2021/03/04 05:07:36;;;;;;;7.00;2.33;;;27.50;54.40;;;;;;5072750;28;20056;-57
2021/03/04 05:10:05;;;;;;;6.25;2.25;;;27.50;55.10;;;;;;5056882;28;20474;-66
2021/03/04 05:12:33;;;;;;;4.90;2.30;;;27.50;54.90;;;;;;5068870;28;20036;-50
2021/03/04 05:15:01;;;;;;;6.47;2.00;;;27.50;55.00;;;;;;5071159;28;20441;-67
2021/03/04 05:17:28;;;;;;;4.55;1.90;;;27.50;55.10;;;;;;5069805;28;20438;-60
2021/03/04 05:19:57;;;;;;;4.43;2.10;;;27.50;55.60;;;;;;5066358;28;20074;-60
2021/03/04 05:22:24;;;;;;;5.80;2.22;;;27.40;55.40;;;;;;5068761;28;20024;-61
2021/03/04 05:24:52;;;;;;;4.10;1.70;;;27.50;55.60;;;;;;5068970;28;20036;-65
2021/03/04 05:27:22;;;;;;;6.88;2.45;;;27.50;55.70;;;;;;5070945;28;20131;-66
2021/03/04 05:29:50;;;;;;;5.50;2.03;;;27.60;55.90;;;;;;5063371;28;20027;-57
2021/03/04 05:32:17;;;;;;;7.97;2.20;;;27.60;56.40;;;;;;5069876;28;20043;-65
2021/03/04 05:34:45;;;;;;;7.90;2.42;;;27.70;56.70;;;;;;5069893;28;20085;-63
2021/03/04 05:37:13;;;;;;;3.72;1.90;;;27.60;56.10;;;;;;5063520;28;20031;-63
2021/03/04 05:39:42;;;;;;;5.88;1.80;;;27.70;56.00;;;;;;5057929;28;20032;-65
2021/03/04 05:42:10;;;;;;;4.15;1.98;;;27.60;56.50;;;;;;5066203;28;20082;-65
2021/03/04 05:44:42;;;;;;;2.78;1.58;;;27.60;56.80;;;;;;5070253;28;20036;-57
2021/03/04 05:47:09;;;;;;;;;;;27.60;56.60;;;;;;5068838;28;20024;-64
2021/03/04 05:50:04;;;;;;;9.27;2.30;;;27.50;56.90;;;;;;5066637;28;19920;-63
2021/03/04 05:52:36;;;;;;;4.93;2.13;;;27.60;57.90;;;;;;5070279;28;20028;-62
2021/03/04 05:55:04;;;;;;;4.53;2.05;;;27.50;57.50;;;;;;5071481;28;20498;-62
2021/03/04 05:57:32;;;;;;;3.08;1.77;;;27.40;57.70;;;;;;5071871;28;20060;-65
2021/03/04 06:00:00;;;;;;;10.88;2.63;;;27.40;57.80;;;;;;5071350;28;20103;-68
2021/03/04 06:02:28;;;;;;;5.68;2.05;;;27.30;57.50;;;;;;5072550;28;20055;-62
2021/03/04 06:04:55;;;;;;;6.63;2.03;;;27.20;58.30;;;;;;5063326;28;20052;-62
2021/03/04 06:07:23;;;;;;;5.25;2.40;;;27.10;58.50;;;;;;5050195;28;20067;-62
2021/03/04 06:09:52;;;;;;;4.55;1.77;;;27.20;58.80;;;;;;5069752;28;20467;-65
2021/03/04 06:12:19;;;;;;;7.38;2.45;;;27.10;59.30;;;;;;5066952;28;20056;-61
2021/03/04 06:14:47;;;;;;;13.55;5.00;;;27.10;59.60;;;;;;5068783;28;20048;-68
2021/03/04 06:17:16;;;;;;;15.95;3.95;;;27.30;60.40;;;;;;5062526;28;20129;-57
2021/03/04 06:19:58;;;;;;;11.50;6.32;;;27.30;60.90;;;;;;5063294;28;20150;-69
2021/03/04 06:22:31;;;;;;;15.00;4.00;;;27.30;61.10;;;;;;5066487;28;20168;-64
2021/03/04 06:25:01;;;;;;;9.82;5.43;;;27.30;62.20;;;;;;5069335;28;20119;-65
2021/03/04 06:27:33;;;;;;;16.73;5.65;;;27.30;61.90;;;;;;5067458;28;20020;-69
2021/03/04 06:30:04;;;;;;;28.95;6.45;;;27.30;62.50;;;;;;5068723;28;20023;-64
2021/03/04 06:32:31;;;;;;;17.67;5.53;;;27.30;62.40;;;;;;5068602;28;20052;-69
2021/03/04 06:35:15;;;;;;;28.48;4.45;;;27.30;62.90;;;;;;5068738;28;20550;-71
2021/03/04 06:37:45;;;;;;;12.55;5.40;;;27.20;62.50;;;;;;5060979;28;20466;-61
2021/03/04 06:40:21;;;;;;;16.98;8.98;;;27.10;62.70;;;;;;5068458;28;20025;-61
2021/03/04 06:42:49;;;;;;;13.73;4.47;;;27.00;63.20;;;;;;5067749;28;20021;-69
2021/03/04 06:45:30;;;;;;;20.98;11.52;;;26.90;63.40;;;;;;5068275;28;20047;-69
2021/03/04 06:48:20;;;;;;;15.07;7.05;;;27.00;63.90;;;;;;5059830;28;20060;-62
2021/03/04 06:51:04;;;;;;;16.10;7.15;;;27.00;63.80;;;;;;5067667;28;20035;-69
2021/03/04 06:53:32;;;;;;;9.18;5.45;;;27.00;63.70;;;;;;5064233;28;20037;-69
2021/03/04 06:56:04;;;;;;;11.25;4.03;;;26.90;63.60;;;;;;5067980;28;20024;-70
2021/03/04 06:58:33;;;;;;;14.43;10.48;;;26.80;64.00;;;;;;5059201;28;20090;-65
2021/03/04 07:01:10;;;;;;;12.02;5.03;;;26.80;64.90;;;;;;5064482;28;20023;-64
2021/03/04 07:03:42;;;;;;;13.05;4.18;;;26.80;65.20;;;;;;5068328;28;20033;-69
2021/03/04 07:06:14;;;;;;;8.20;4.00;;;26.60;64.20;;;;;;5068450;28;20483;-58
2021/03/04 07:08:43;;;;;;;10.90;4.75;;;26.50;64.00;;;;;;5062987;28;20142;-51
2021/03/04 07:11:15;;;;;;;12.20;5.85;;;26.40;64.60;;;;;;5067696;28;20031;-54
2021/03/04 07:13:44;;;;;;;10.75;2.92;;;26.40;66.50;;;;;;5068725;28;21023;-51
2021/03/04 07:16:23;;;;;;;19.30;3.75;;;26.20;65.00;;;;;;5068395;28;20063;-58
2021/03/04 07:18:55;;;;;;;16.83;3.70;;;26.10;65.50;;;;;;5061522;28;20029;-51
2021/03/04 07:21:28;;;;;;;7.50;2.70;;;26.10;66.50;;;;;;5067833;28;20033;-51
2021/03/04 07:23:55;;;;;;;11.43;2.63;;;26.10;66.60;;;;;;5069892;28;20032;-64
2021/03/04 07:26:23;;;;;;;10.27;2.35;;;26.10;66.30;;;;;;5070770;28;20569;-57
2021/03/04 07:28:53;;;;;;;13.15;2.75;;;26.10;66.20;;;;;;5071015;28;20044;-55
2021/03/04 07:31:20;;;;;;;11.10;2.70;;;26.00;66.30;;;;;;5071023;28;20032;-65
2021/03/04 07:33:51;;;;;;;7.57;2.25;;;26.00;66.40;;;;;;5070728;28;20029;-51
2021/03/04 07:36:24;;;;;;;8.40;2.40;;;26.00;66.60;;;;;;5070726;28;20111;-51
2021/03/04 07:39:08;;;;;;;6.80;2.25;;;25.90;67.10;;;;;;5071053;28;20191;-58
2021/03/04 07:41:46;;;;;;;7.38;2.55;;;26.00;67.80;;;;;;5071733;28;20371;-54
2021/03/04 07:44:29;;;;;;;14.35;2.60;;;25.80;68.10;;;;;;5070477;28;20032;-61
2021/03/04 07:46:58;;;;;;;9.23;2.35;;;25.90;69.20;;;;;;5070469;28;20043;-54
2021/03/04 07:49:45;;;;;;;13.60;2.63;;;25.80;69.10;;;;;;5070785;28;20024;-57
2021/03/04 07:52:20;;;;;;;9.15;2.80;;;25.70;68.30;;;;;;5073151;28;20020;-57
2021/03/04 07:54:56;;;;;;;22.08;2.78;;;25.70;69.90;;;;;;5075250;28;20027;-60
2021/03/04 07:57:26;;;;;;;11.90;2.33;;;25.70;69.40;;;;;;5073277;28;20033;-54
2021/03/04 08:00:02;;;;;;;17.40;3.05;;;25.70;69.70;;;;;;5074267;28;20336;-59
2021/03/04 08:02:31;;;;;;;18.45;3.08;;;25.70;70.00;;;;;;5074449;28;20024;-57
2021/03/04 08:05:13;;;;;;;10.60;2.90;;;25.60;69.30;;;;;;5073854;28;20441;-62
2021/03/04 08:07:43;;;;;;;12.05;2.65;;;25.50;68.70;;;;;;5073832;28;20111;-56
2021/03/04 08:10:15;;;;;;;10.07;2.55;;;25.50;69.20;;;;;;5074630;28;20134;-60
2021/03/04 08:12:54;;;;;;;16.73;3.45;;;25.50;69.80;;;;;;5073874;28;20024;-56
2021/03/04 08:15:30;;;;;;;13.45;4.03;;;25.50;70.70;;;;;;5074081;28;20024;-60
2021/03/04 08:17:58;;;;;;;10.63;3.85;;;25.50;69.60;;;;;;5073926;28;20036;-57
2021/03/04 08:20:26;;;;;;;17.95;3.05;;;25.60;69.80;;;;;;5073785;28;20121;-59
2021/03/04 08:22:58;;;;;;;14.20;3.08;;;25.50;70.20;;;;;;5074107;28;20050;-53
2021/03/04 08:25:31;;;;;;;14.50;3.65;;;25.50;70.00;;;;;;5072901;28;20037;-54
2021/03/04 08:28:01;;;;;;;10.90;3.10;;;25.50;70.90;;;;;;5074029;28;20501;-55
2021/03/04 08:30:38;;;;;;;15.18;3.03;;;25.40;70.50;;;;;;5073839;28;20120;-55
2021/03/04 08:33:14;;;;;;;14.05;3.13;;;25.40;72.00;;;;;;5053865;28;20459;-51
2021/03/04 08:35:45;;;;;;;29.15;3.55;;;25.50;74.90;;;;;;5053743;28;20106;-58
2021/03/04 08:38:18;;;;;;;14.55;3.30;;;25.50;73.70;;;;;;5055970;28;20100;-62
2021/03/04 08:40:58;;;;;;;8.57;3.03;;;25.50;73.70;;;;;;5055368;28;20028;-49
2021/03/04 08:43:29;;;;;;;20.63;3.28;;;25.50;71.20;;;;;;5051836;28;20076;-56
2021/03/04 08:46:00;;;;;;;13.85;3.05;;;25.40;73.60;;;;;;5053275;28;20037;-54
2021/03/04 08:48:27;;;;;;;21.70;4.35;;;25.40;72.00;;;;;;5052888;28;20029;-51
2021/03/04 08:51:05;;;;;;;14.23;2.80;;;25.40;74.30;;;;;;5053030;28;20029;-47
2021/03/04 08:53:37;;;;;;;13.95;3.17;;;25.50;74.70;;;;;;5053481;28;20763;-59
2021/03/04 08:56:06;;;;;;;12.45;3.33;;;25.50;75.80;;;;;;5060183;28;20035;-48
2021/03/04 08:58:44;;;;;;;8.95;3.03;;;25.50;75.30;;;;;;5093539;28;20091;-58
2021/03/04 09:01:13;;;;;;;12.80;3.20;;;25.50;75.10;;;;;;5093437;28;20077;-58
2021/03/04 09:03:44;;;;;;;16.00;3.83;;;25.40;75.70;;;;;;5093242;28;20020;-52
2021/03/04 09:06:16;;;;;;;11.27;3.25;;;25.40;75.20;;;;;;5093749;28;20047;-52
2021/03/04 09:08:50;;;;;;;;;;;25.40;73.40;;;;;;5093684;28;20424;-52
2021/03/04 09:11:35;;;;;;;12.85;3.05;;;25.40;75.40;;;;;;5093362;28;19995;-60
2021/03/04 09:14:07;;;;;;;14.45;3.15;;;25.40;76.60;;;;;;5093434;28;20024;-60
2021/03/04 09:17:01;;;;;;;14.40;3.50;;;25.30;75.50;;;;;;5093411;28;20039;-58
2021/03/04 09:19:41;;;;;;;17.23;4.07;;;25.40;75.50;;;;;;5090947;28;20118;-52
2021/03/04 09:22:12;;;;;;;8.70;3.20;;;25.30;76.10;;;;;;5092833;28;20027;-53
2021/03/04 09:24:40;;;;;;;14.15;3.58;;;25.30;76.80;;;;;;5093115;28;20055;-53
2021/03/04 09:27:13;;;;;;;14.82;3.60;;;25.30;74.40;;;;;;5092931;28;20024;-57
2021/03/04 09:29:41;;;;;;;23.50;4.53;;;25.40;77.60;;;;;;5093427;28;20024;-62
2021/03/04 09:32:09;;;;;;;24.42;3.92;;;25.40;79.30;;;;;;5092900;28;20016;-58
2021/03/04 09:34:38;;;;;;;19.33;3.53;;;25.50;79.10;;;;;;5085288;28;20107;-54
2021/03/04 09:37:12;;;;;;;12.77;3.30;;;25.40;77.60;;;;;;5069820;28;20078;-62
2021/03/04 09:39:47;;;;;;;7.75;3.25;;;25.40;76.30;;;;;;5064509;28;20029;-56
2021/03/04 09:42:20;;;;;;;11.55;2.78;;;25.40;76.40;;;;;;5066957;28;20109;-60
2021/03/04 09:44:58;;;;;;;5.95;2.53;;;25.40;75.70;;;;;;5066471;28;20066;-62
2021/03/04 09:47:30;;;;;;;7.40;2.63;;;25.30;75.50;;;;;;5067526;28;20399;-53
2021/03/04 09:50:01;;;;;;;6.55;2.60;;;25.30;75.50;;;;;;5067875;28;20074;-52
2021/03/04 09:52:30;;;;;;;7.07;2.15;;;25.30;75.60;;;;;;5066281;28;20383;-62
2021/03/04 09:55:20;;;;;;;6.82;2.92;;;25.30;75.10;;;;;;5069055;28;20043;-56
2021/03/04 09:57:47;;;;;;;10.18;2.40;;;25.30;75.00;;;;;;5066161;28;20024;-61
2021/03/04 10:00:18;;;;;;;9.43;2.85;;;25.30;74.90;;;;;;5069880;28;20066;-64
2021/03/04 10:02:50;;;;;;;13.65;2.67;;;25.20;74.40;;;;;;5063545;28;20024;-53
2021/03/04 10:05:29;;;;;;;10.38;2.67;;;25.20;74.50;;;;;;5066729;28;20048;-55
2021/03/04 10:07:59;;;;;;;15.15;3.65;;;25.20;75.40;;;;;;5067771;28;20017;-65
2021/03/04 10:10:28;;;;;;;8.77;2.35;;;25.20;75.40;;;;;;5069772;28;20388;-58
2021/03/04 10:12:58;;;;;;;9.40;2.63;;;25.20;74.90;;;;;;5065974;28;20024;-61
2021/03/04 10:15:28;;;;;;;9.10;2.65;;;25.20;74.80;;;;;;5068919;28;20103;-56
2021/03/04 10:17:57;;;;;;;10.77;3.15;;;25.20;75.00;;;;;;5069872;28;20051;-60
2021/03/04 10:20:25;;;;;;;9.45;2.53;;;25.20;74.70;;;;;;5052208;28;20035;-58
2021/03/04 10:22:52;;;;;;;7.45;2.53;;;25.20;75.00;;;;;;5065572;28;20039;-59
2021/03/04 10:25:20;;;;;;;10.43;2.75;;;25.10;74.80;;;;;;5069248;28;20405;-55
2021/03/04 10:27:54;;;;;;;7.07;2.35;;;25.10;74.90;;;;;;5069543;28;20449;-51
2021/03/04 10:30:22;;;;;;;7.28;2.17;;;25.10;74.90;;;;;;5071344;28;20032;-50
2021/03/04 10:32:50;;;;;;;5.45;2.45;;;25.10;74.80;;;;;;5066204;28;20033;-48
2021/03/04 10:35:18;;;;;;;8.00;2.95;;;25.10;74.70;;;;;;5070205;28;20040;-55
2021/03/04 10:37:45;;;;;;;6.93;2.45;;;25.10;74.60;;;;;;5070306;28;20027;-53
2021/03/04 10:40:15;;;;;;;8.07;2.42;;;25.10;74.60;;;;;;5069460;28;20061;-53
2021/03/04 10:42:43;;;;;;;9.95;1.98;;;25.00;74.60;;;;;;5066577;28;20066;-50
2021/03/04 10:45:16;;;;;;;11.18;3.45;;;25.00;74.50;;;;;;5069857;28;20120;-54
2021/03/04 10:47:44;;;;;;;6.55;3.13;;;25.00;74.60;;;;;;5069254;28;20084;-52
2021/03/04 10:50:17;;;;;;;7.55;2.22;;;25.00;74.50;;;;;;5069796;28;20082;-54
2021/03/04 10:52:45;;;;;;;5.55;2.50;;;25.00;74.30;;;;;;5066079;28;20482;-64
2021/03/04 10:55:15;;;;;;;6.00;1.90;;;25.00;74.30;;;;;;5068297;28;20446;-62
2021/03/04 10:57:42;;;;;;;5.35;1.98;;;25.00;74.20;;;;;;5069394;28;20538;-59
2021/03/04 11:00:12;;;;;;;9.38;2.45;;;25.00;74.20;;;;;;5069177;28;20099;-62
2021/03/04 11:02:40;;;;;;;4.90;2.38;;;25.00;74.10;;;;;;5066297;28;20021;-57
2021/03/04 11:05:08;;;;;;;4.85;2.05;;;25.00;74.10;;;;;;5068655;28;20490;-59
2021/03/04 11:07:36;;;;;;;8.85;1.98;;;24.90;74.00;;;;;;5069876;28;20029;-61
2021/03/04 11:10:06;;;;;;;3.85;1.60;;;24.90;74.00;;;;;;5069812;28;20033;-68
2021/03/04 11:12:34;;;;;;;5.20;2.28;;;24.90;74.10;;;;;;5064339;28;20470;-51
2021/03/04 11:15:02;;;;;;;3.88;1.70;;;24.90;74.20;;;;;;5068994;28;20060;-52
2021/03/04 11:17:30;;;;;;;4.55;2.10;;;24.90;74.30;;;;;;5069598;28;20490;-55
2021/03/04 11:19:57;;;;;;;7.28;2.10;;;24.90;74.20;;;;;;5068394;28;20016;-53
2021/03/04 11:22:24;;;;;;;5.85;2.22;;;24.80;74.30;;;;;;5065818;28;20028;-54
2021/03/04 11:24:52;;;;;;;9.73;2.45;;;24.80;74.10;;;;;;5068649;28;20686;-54
2021/03/04 11:27:19;;;;;;;8.75;2.70;;;24.80;74.20;;;;;;5071648;28;20115;-62
2021/03/04 11:29:48;;;;;;;3.92;1.60;;;24.80;74.10;;;;;;5074664;28;20351;-52
2021/03/04 11:32:16;;;;;;;5.07;1.92;;;24.80;74.10;;;;;;5069444;28;20050;-49
2021/03/04 11:34:44;;;;;;;4.55;1.63;;;24.80;74.00;;;;;;5072820;28;20122;-57
2021/03/04 11:37:12;;;;;;;6.45;2.35;;;24.80;74.00;;;;;;5071997;28;20112;-59
2021/03/04 11:39:39;;;;;;;6.47;1.95;;;24.80;74.00;;;;;;5071702;28;20017;-60
2021/03/04 11:42:07;;;;;;;7.90;1.98;;;24.80;73.80;;;;;;5068677;28;20052;-57
2021/03/04 11:44:34;;;;;;;7.00;2.00;;;24.80;73.80;;;;;;5072423;28;20183;-58
2021/03/04 11:47:06;;;;;;;4.43;2.38;;;24.80;73.80;;;;;;5072662;28;20037;-54
2021/03/04 11:49:33;;;;;;;7.13;1.77;;;24.70;73.60;;;;;;5072391;28;20032;-52
2021/03/04 11:52:00;;;;;;;4.32;2.05;;;24.70;73.60;;;;;;5069132;28;20055;-49
2021/03/04 11:54:28;;;;;;;3.08;1.80;;;24.70;73.60;;;;;;5071814;28;20112;-52
2021/03/04 11:56:58;;;;;;;4.95;1.83;;;24.70;73.60;;;;;;5071915;28;20042;-57
2021/03/04 11:59:26;;;;;;;5.60;1.88;;;24.70;73.40;;;;;;5073034;28;20483;-49
2021/03/04 12:01:53;;;;;;;2.85;1.45;;;24.70;73.60;;;;;;5068591;28;20059;-64
2021/03/04 12:04:20;;;;;;;3.13;1.60;;;24.70;73.40;;;;;;5072413;28;20101;-68
2021/03/04 12:06:48;;;;;;;5.72;1.92;;;24.70;73.60;;;;;;5072371;28;20029;-63
2021/03/04 12:09:15;;;;;;;8.73;2.22;;;24.70;73.50;;;;;;5071449;28;20539;-60
2021/03/04 12:11:43;;;;;;;6.80;2.13;;;24.70;73.40;;;;;;5068599;28;20041;-65
2021/03/04 12:14:10;;;;;;;4.38;1.90;;;24.70;73.50;;;;;;5072684;28;20021;-59
2021/03/04 12:16:37;;;;;;;5.00;2.28;;;24.70;73.50;;;;;;5072144;28;20024;-58
2021/03/04 12:19:05;;;;;;;10.00;2.15;;;24.60;73.40;;;;;;5070344;28;20482;-56
2021/03/04 12:21:32;;;;;;;6.10;2.20;;;24.60;73.20;;;;;;5068737;28;20138;-60
2021/03/04 12:24:00;;;;;;;4.53;1.85;;;24.60;73.40;;;;;;5073031;28;20028;-61
2021/03/04 12:26:28;;;;;;;5.15;1.85;;;24.60;73.50;;;;;;5074195;28;20399;-54
2021/03/04 12:28:56;;;;;;;3.65;1.77;;;24.60;73.50;;;;;;5074046;28;20024;-51
2021/03/04 12:31:23;;;;;;;7.72;2.33;;;24.60;73.50;;;;;;5073918;28;20034;-54
2021/03/04 12:33:51;;;;;;;4.20;1.30;;;24.60;73.50;;;;;;5073635;28;20105;-60
2021/03/04 12:36:18;;;;;;;4.70;1.58;;;24.60;73.50;;;;;;5073506;28;20488;-58
2021/03/04 12:38:45;;;;;;;3.15;1.50;;;24.50;73.40;;;;;;5073967;28;20107;-58
2021/03/04 12:41:13;;;;;;;6.30;1.88;;;24.50;73.40;;;;;;5073971;28;20021;-61
2021/03/04 12:43:40;;;;;;;7.13;1.90;;;24.50;73.40;;;;;;5074199;28;20064;-54
2021/03/04 12:46:07;;;;;;;5.97;2.35;;;24.50;73.40;;;;;;5073880;28;20029;-49
2021/03/04 12:48:35;;;;;;;5.97;1.75;;;24.50;73.40;;;;;;5073901;28;20043;-51
2021/03/04 12:51:02;;;;;;;4.28;1.90;;;24.50;73.50;;;;;;5073517;28;20035;-59
2021/03/04 12:53:30;;;;;;;4.35;1.73;;;24.40;73.40;;;;;;5073811;28;20029;-54
2021/03/04 12:56:00;;;;;;;7.22;2.47;;;24.40;73.60;;;;;;5073359;28;20033;-54
2021/03/04 12:58:28;;;;;;;5.20;1.75;;;24.40;73.60;;;;;;5073731;28;20032;-66
2021/03/04 13:00:56;;;;;;;2.75;1.38;;;24.40;73.70;;;;;;5073884;28;20032;-64
2021/03/04 13:03:26;;;;;;;7.95;2.03;;;24.30;73.70;;;;;;5073996;28;20025;-57